Time;durP1;ratioP1;P1;durP2;ratioP2;P2;SDS_P1;SDS_P2;PMS_P1;PMS_P2;Temp;Humidity;BMP_temperature;BMP_pressure;BME280_temperature;BME280_humidity;BME280_pressure;Samples;Min_cycle;Max_cycle;Signal;HPM_P1;HPM_P2
2023/11/28 00:01:25;;;;;;;;;3.50;2.75;;;;;;;;5049003;28;10716;-80
2023/11/28 00:03:54;;;;;;;;;9.00;7.00;;;;;;;;5050073;28;10901;-80
2023/11/28 00:06:22;;;;;;;;;6.25;6.25;;;;;;;;5051686;28;11620;-80
2023/11/28 00:08:49;;;;;;;;;8.00;8.00;;;;;;;;5053961;28;10677;-78
2023/11/28 00:11:19;;;;;;;;;11.25;9.25;;;;;;;;5055384;28;10818;-79
2023/11/28 00:13:46;;;;;;;;;8.00;5.75;;;;;;;;5049215;28;10791;-79
2023/11/28 00:16:15;;;;;;;;;5.00;5.00;;;;;;;;5049018;28;10777;-79
2023/11/28 00:18:42;;;;;;;;;8.00;8.00;;;;;;;;5046227;28;10852;-80
2023/11/28 00:21:11;;;;;;;;;7.75;7.75;;;;;;;;5052092;28;10872;-81
2023/11/28 00:23:38;;;;;;;;;8.00;7.00;;;;;;;;5046536;28;10756;-80
2023/11/28 00:26:06;;;;;;;;;9.00;7.00;;;;;;;;5046180;28;10969;-80
2023/11/28 00:28:33;;;;;;;;;10.00;9.25;;;;;;;;5050352;28;11565;-80
2023/11/28 00:31:00;;;;;;;;;13.50;7.50;;;;;;;;5043247;28;10878;-81
2023/11/28 00:33:27;;;;;;;;;7.25;7.25;;;;;;;;5051150;28;10875;-80
2023/11/28 00:35:54;;;;;;;;;8.00;8.00;;;;;;;;5040053;28;10885;-81
2023/11/28 00:38:22;;;;;;;;;10.00;8.25;;;;;;;;5045147;28;10993;-81
2023/11/28 00:40:50;;;;;;;;;10.50;9.00;;;;;;;;5046787;28;10960;-80
2023/11/28 00:43:17;;;;;;;;;8.00;8.00;;;;;;;;5044478;28;10829;-80
2023/11/28 00:45:45;;;;;;;;;13.00;10.50;;;;;;;;5042989;28;10852;-80
2023/11/28 00:48:14;;;;;;;;;8.25;8.25;;;;;;;;5046782;28;10988;-80
2023/11/28 00:50:41;;;;;;;;;9.00;9.00;;;;;;;;5038605;28;11042;-80
2023/11/28 00:53:08;;;;;;;;;6.50;6.50;;;;;;;;5045391;28;11723;-80
2023/11/28 00:55:37;;;;;;;;;8.00;7.75;;;;;;;;5048506;28;10871;-80
2023/11/28 00:58:04;;;;;;;;;8.00;8.00;;;;;;;;5046479;28;10841;-80
2023/11/28 01:00:31;;;;;;;;;8.50;7.25;;;;;;;;5048770;28;10817;-79
2023/11/28 01:03:03;;;;;;;;;10.75;9.50;;;;;;;;5049564;28;10977;-80
2023/11/28 01:05:30;;;;;;;;;7.50;7.50;;;;;;;;5048736;28;10940;-80
2023/11/28 01:07:58;;;;;;;;;9.50;9.50;;;;;;;;5045348;28;11629;-81
2023/11/28 01:10:26;;;;;;;;;7.25;6.75;;;;;;;;5047722;28;10891;-80
2023/11/28 01:12:54;;;;;;;;;6.75;6.75;;;;;;;;5047597;28;11680;-80
2023/11/28 01:15:22;;;;;;;;;7.75;6.50;;;;;;;;5048032;28;10920;-81
2023/11/28 01:17:49;;;;;;;;;13.50;7.50;;;;;;;;5047442;28;11723;-81
2023/11/28 01:20:19;;;;;;;;;7.00;7.00;;;;;;;;5047045;28;10911;-81
2023/11/28 01:22:49;;;;;;;;;13.25;10.50;;;;;;;;5045834;28;10904;-81
2023/11/28 01:25:17;;;;;;;;;8.75;8.00;;;;;;;;5047395;28;11221;-81
2023/11/28 01:27:44;;;;;;;;;5.50;5.50;;;;;;;;5048374;28;11012;-81
2023/11/28 01:30:14;;;;;;;;;4.00;4.00;;;;;;;;5047037;28;10800;-80
2023/11/28 01:32:41;;;;;;;;;6.50;6.25;;;;;;;;5047596;28;10840;-81
2023/11/28 01:35:09;;;;;;;;;4.00;4.00;;;;;;;;5050596;28;10903;-80
2023/11/28 01:37:36;;;;;;;;;7.75;3.25;;;;;;;;5042443;28;10753;-81
2023/11/28 01:40:05;;;;;;;;;5.00;5.00;;;;;;;;5044910;28;10743;-81
2023/11/28 01:42:33;;;;;;;;;4.00;4.00;;;;;;;;5044599;28;11620;-80
2023/11/28 01:45:00;;;;;;;;;5.25;3.00;;;;;;;;5051190;28;10825;-81
2023/11/28 01:47:29;;;;;;;;;3.25;3.25;;;;;;;;5047656;28;10740;-81
2023/11/28 01:49:56;;;;;;;;;4.00;3.25;;;;;;;;5050300;28;11666;-79
2023/11/28 01:52:24;;;;;;;;;0.00;0.00;;;;;;;;5051436;28;11488;-80
2023/11/28 01:54:51;;;;;;;;;3.25;3.25;;;;;;;;5046101;28;10759;-80
2023/11/28 01:57:19;;;;;;;;;3.25;3.25;;;;;;;;5044570;28;10756;-79
2023/11/28 01:59:48;;;;;;;;;4.75;3.00;;;;;;;;5050054;28;10795;-80
2023/11/28 02:02:16;;;;;;;;;2.75;2.75;;;;;;;;5043257;28;10811;-80
2023/11/28 02:04:45;;;;;;;;;4.00;2.50;;;;;;;;5050741;28;10821;-80
2023/11/28 02:07:12;;;;;;;;;3.00;3.00;;;;;;;;5046446;28;11546;-80
2023/11/28 02:09:40;;;;;;;;;4.00;4.00;;;;;;;;5055181;28;10834;-81
2023/11/28 02:12:08;;;;;;;;;6.25;4.00;;;;;;;;5049611;28;10888;-80
2023/11/28 02:14:43;;;;;;;;;3.00;3.00;;;;;;;;5050800;28;10833;-81
2023/11/28 02:17:10;;;;;;;;;1.25;1.25;;;;;;;;5047688;28;10856;-81
2023/11/28 02:19:38;;;;;;;;;3.00;2.00;;;;;;;;5052010;28;10664;-81
2023/11/28 02:22:08;;;;;;;;;2.25;2.25;;;;;;;;5052595;28;10814;-81
2023/11/28 02:24:39;;;;;;;;;3.00;3.00;;;;;;;;5049457;28;10733;-81
2023/11/28 02:27:08;;;;;;;;;2.50;2.00;;;;;;;;5050886;28;10903;-80
2023/11/28 02:29:35;;;;;;;;;1.75;1.50;;;;;;;;5039315;28;10902;-81
2023/11/28 02:32:03;;;;;;;;;1.75;1.75;;;;;;;;5035945;28;10851;-80
2023/11/28 02:34:30;;;;;;;;;1.00;1.00;;;;;;;;5043943;28;11446;-81
2023/11/28 02:36:57;;;;;;;;;2.50;2.50;;;;;;;;5049713;28;10718;-79
2023/11/28 02:39:26;;;;;;;;;1.00;1.00;;;;;;;;5042123;28;10957;-79
2023/11/28 02:41:53;;;;;;;;;2.00;2.00;;;;;;;;5049692;28;10722;-80
2023/11/28 02:44:21;;;;;;;;;3.50;2.00;;;;;;;;5048676;28;10758;-79
2023/11/28 02:46:49;;;;;;;;;3.00;3.00;;;;;;;;5047148;28;13047;-79
2023/11/28 02:49:16;;;;;;;;;1.00;1.00;;;;;;;;5044589;28;10944;-81
2023/11/28 02:51:43;;;;;;;;;1.75;1.75;;;;;;;;5047936;28;10841;-80
2023/11/28 02:54:10;;;;;;;;;2.00;2.00;;;;;;;;5051176;28;10968;-81
2023/11/28 02:56:38;;;;;;;;;5.00;2.75;;;;;;;;5039701;28;10816;-80
2023/11/28 02:59:04;;;;;;;;;3.00;3.00;;;;;;;;5042354;28;10898;-82
2023/11/28 03:01:33;;;;;;;;;3.25;2.00;;;;;;;;5046493;28;10915;-82
2023/11/28 03:04:00;;;;;;;;;2.00;2.00;;;;;;;;5049930;28;10844;-81
2023/11/28 03:06:27;;;;;;;;;5.50;5.50;;;;;;;;5038830;28;10985;-81
2023/11/28 03:08:54;;;;;;;;;8.00;8.00;;;;;;;;5050253;28;11057;-82
2023/11/28 03:11:22;;;;;;;;;7.00;6.75;;;;;;;;5049430;28;11156;-80
2023/11/28 03:13:49;;;;;;;;;10.25;7.00;;;;;;;;5040746;28;11090;-81
2023/11/28 03:16:16;;;;;;;;;7.75;7.75;;;;;;;;5049149;28;11142;-81
2023/11/28 03:18:45;;;;;;;;;12.00;12.00;;;;;;;;5049922;28;11039;-81
2023/11/28 03:21:12;;;;;;;;;9.00;9.00;;;;;;;;5049254;28;11511;-79
2023/11/28 03:23:40;;;;;;;;;9.75;9.00;;;;;;;;5049893;28;11606;-81
2023/11/28 03:26:07;;;;;;;;;14.50;14.50;;;;;;;;5048768;28;11490;-80
2023/11/28 03:28:34;;;;;;;;;7.50;7.00;;;;;;;;5051556;28;11488;-79
2023/11/28 03:31:02;;;;;;;;;6.50;6.50;;;;;;;;5051834;28;11427;-80
2023/11/28 03:33:29;;;;;;;;;13.75;13.75;;;;;;;;5050546;28;11583;-81
2023/11/28 03:35:57;;;;;;;;;11.00;8.50;;;;;;;;5049079;28;12241;-81
2023/11/28 03:38:25;;;;;;;;;12.50;12.00;;;;;;;;5049296;28;11469;-81
2023/11/28 03:40:52;;;;;;;;;15.25;13.75;;;;;;;;5048540;28;11634;-80
2023/11/28 03:43:19;;;;;;;;;10.50;10.00;;;;;;;;5049495;28;11614;-80
2023/11/28 03:45:46;;;;;;;;;10.50;8.00;;;;;;;;5050280;28;11470;-79
2023/11/28 03:48:14;;;;;;;;;9.00;9.00;;;;;;;;5051474;28;11219;-80
2023/11/28 03:50:41;;;;;;;;;11.25;9.25;;;;;;;;5052908;28;11261;-80
2023/11/28 03:53:10;;;;;;;;;16.50;16.50;;;;;;;;5050792;28;11489;-80
2023/11/28 03:55:37;;;;;;;;;10.00;10.00;;;;;;;;5052962;28;11507;-79
2023/11/28 03:58:04;;;;;;;;;11.25;11.25;;;;;;;;5049058;28;11452;-81
2023/11/28 04:00:31;;;;;;;;;13.75;11.75;;;;;;;;5053241;28;11407;-79
2023/11/28 04:02:59;;;;;;;;;13.25;13.25;;;;;;;;5048556;28;11485;-80
2023/11/28 04:05:26;;;;;;;;;9.75;9.75;;;;;;;;5038879;28;11498;-81
2023/11/28 04:07:53;;;;;;;;;8.75;8.75;;;;;;;;5045218;28;11615;-79
2023/11/28 04:10:22;;;;;;;;;11.25;11.25;;;;;;;;5042211;28;11558;-80
2023/11/28 04:12:49;;;;;;;;;10.50;10.50;;;;;;;;5052342;28;11591;-80
2023/11/28 04:15:17;;;;;;;;;14.25;13.25;;;;;;;;5049943;28;12249;-80
2023/11/28 04:17:44;;;;;;;;;13.00;11.00;;;;;;;;5048788;28;11467;-80
2023/11/28 04:20:12;;;;;;;;;16.00;16.00;;;;;;;;5048326;28;11477;-80
2023/11/28 04:22:39;;;;;;;;;11.75;10.75;;;;;;;;5047775;28;11505;-80
2023/11/28 04:25:08;;;;;;;;;10.25;9.75;;;;;;;;5048295;28;11608;-80
2023/11/28 04:27:37;;;;;;;;;14.50;13.00;;;;;;;;5047979;28;11492;-82
2023/11/28 04:30:04;;;;;;;;;18.25;15.25;;;;;;;;5046826;28;11489;-79
2023/11/28 04:32:32;;;;;;;;;12.25;12.25;;;;;;;;5047907;28;12339;-80
2023/11/28 04:34:59;;;;;;;;;15.50;12.50;;;;;;;;5048091;28;11488;-80
2023/11/28 04:37:26;;;;;;;;;12.00;11.50;;;;;;;;5047362;28;11496;-81
2023/11/28 04:39:53;;;;;;;;;13.75;13.75;;;;;;;;5047817;28;11607;-78
2023/11/28 04:42:24;;;;;;;;;8.00;8.00;;;;;;;;5047904;28;11479;-80
2023/11/28 04:44:53;;;;;;;;;12.00;12.00;;;;;;;;5048200;28;12348;-80
2023/11/28 04:47:20;;;;;;;;;15.50;12.00;;;;;;;;5043208;28;11637;-80
2023/11/28 04:49:47;;;;;;;;;12.25;11.75;;;;;;;;5041675;28;12296;-81
2023/11/28 04:52:14;;;;;;;;;15.50;12.75;;;;;;;;5047300;28;12258;-80
2023/11/28 04:54:42;;;;;;;;;9.75;9.75;;;;;;;;5046786;28;11613;-80
2023/11/28 04:57:09;;;;;;;;;9.50;9.50;;;;;;;;5047582;28;11566;-81
2023/11/28 04:59:36;;;;;;;;;17.50;16.00;;;;;;;;5047709;28;11438;-80
2023/11/28 05:02:08;;;;;;;;;11.00;11.00;;;;;;;;5048022;28;11436;-80
2023/11/28 05:04:36;;;;;;;;;14.75;14.75;;;;;;;;5048322;28;11570;-81
2023/11/28 05:07:05;;;;;;;;;13.00;11.50;;;;;;;;5051727;28;11478;-81
2023/11/28 05:09:32;;;;;;;;;14.25;12.25;;;;;;;;5048927;28;12237;-80
2023/11/28 05:12:00;;;;;;;;;14.25;13.75;;;;;;;;5051684;28;11493;-81
2023/11/28 05:14:29;;;;;;;;;10.00;10.00;;;;;;;;5051216;28;11491;-81
2023/11/28 05:16:56;;;;;;;;;12.75;12.75;;;;;;;;5051479;28;11483;-81
2023/11/28 05:19:25;;;;;;;;;15.00;13.00;;;;;;;;5051464;28;11619;-80
2023/11/28 05:21:54;;;;;;;;;15.50;13.00;;;;;;;;5052015;28;11636;-80
2023/11/28 05:24:21;;;;;;;;;24.50;24.50;;;;;;;;5051247;28;11467;-80
2023/11/28 05:26:50;;;;;;;;;22.00;18.50;;;;;;;;5051751;28;11578;-79
2023/11/28 05:29:17;;;;;;;;;6.25;2.75;;;;;;;;5051041;28;12271;-80
2023/11/28 05:31:45;;;;;;;;;20.00;15.00;;;;;;;;5051054;28;11465;-79
2023/11/28 05:34:12;;;;;;;;;13.75;13.75;;;;;;;;5052698;28;11592;-79
2023/11/28 05:36:43;;;;;;;;;13.00;13.00;;;;;;;;5054322;28;11545;-79
2023/11/28 05:39:12;;;;;;;;;12.00;12.00;;;;;;;;5053855;28;11617;-79
2023/11/28 05:41:39;;;;;;;;;19.25;18.00;;;;;;;;5054668;28;11654;-79
2023/11/28 05:44:06;;;;;;;;;13.00;12.00;;;;;;;;5054795;28;11601;-79
2023/11/28 05:46:35;;;;;;;;;18.50;18.50;;;;;;;;5057409;28;11551;-76
2023/11/28 05:49:02;;;;;;;;;20.50;19.75;;;;;;;;5049558;28;11552;-76
2023/11/28 05:51:31;;;;;;;;;17.25;17.25;;;;;;;;5054162;28;11564;-78
2023/11/28 05:54:01;;;;;;;;;19.00;19.00;;;;;;;;5046768;28;12377;-76
2023/11/28 05:56:31;;;;;;;;;18.50;14.75;;;;;;;;5046432;28;12370;-76
2023/11/28 05:59:01;;;;;;;;;16.25;14.50;;;;;;;;5049391;28;11641;-76
2023/11/28 06:01:28;;;;;;;;;15.25;14.00;;;;;;;;5052095;28;11591;-76
2023/11/28 06:03:56;;;;;;;;;12.75;12.75;;;;;;;;5044808;28;11550;-80
2023/11/28 06:06:26;;;;;;;;;19.25;17.00;;;;;;;;5046081;28;11565;-77
2023/11/28 06:08:53;;;;;;;;;24.00;18.75;;;;;;;;5050354;28;11680;-80
2023/11/28 06:11:22;;;;;;;;;19.50;16.50;;;;;;;;5045384;28;12361;-83
2023/11/28 06:13:52;;;;;;;;;15.25;14.50;;;;;;;;5038027;28;11645;-77
2023/11/28 06:16:23;;;;;;;;;16.50;15.75;;;;;;;;5044433;28;11556;-80
2023/11/28 06:18:50;;;;;;;;;20.25;16.25;;;;;;;;5034053;28;11580;-85
2023/11/28 06:21:18;;;;;;;;;17.50;17.50;;;;;;;;5048225;28;11592;-84
2023/11/28 06:23:46;;;;;;;;;17.25;15.75;;;;;;;;5041397;28;11568;-84
2023/11/28 06:26:13;;;;;;;;;16.25;15.50;;;;;;;;5048726;28;11547;-83
2023/11/28 06:28:41;;;;;;;;;29.25;29.25;;;;;;;;5049866;28;11530;-85
2023/11/28 06:31:09;;;;;;;;;48.75;43.00;;;;;;;;5047575;28;11505;-81
2023/11/28 06:33:36;;;;;;;;;28.50;24.50;;;;;;;;5040567;28;11590;-81
2023/11/28 06:36:04;;;;;;;;;25.00;22.50;;;;;;;;5047503;28;11536;-80
2023/11/28 06:38:32;;;;;;;;;19.75;17.00;;;;;;;;5043858;28;11575;-79
2023/11/28 06:40:59;;;;;;;;;19.25;16.75;;;;;;;;5043147;28;11694;-80
2023/11/28 06:43:26;;;;;;;;;22.00;20.25;;;;;;;;5046857;28;11570;-79
2023/11/28 06:45:59;;;;;;;;;21.50;19.00;;;;;;;;5050403;28;11556;-79
2023/11/28 06:48:26;;;;;;;;;18.25;17.50;;;;;;;;5049463;28;11662;-77
2023/11/28 06:50:53;;;;;;;;;21.25;21.25;;;;;;;;5049459;28;11574;-77
2023/11/28 06:53:21;;;;;;;;;23.50;23.50;;;;;;;;5047726;28;11561;-80
2023/11/28 06:55:51;;;;;;;;;21.75;21.25;;;;;;;;5050608;28;11577;-76
2023/11/28 06:58:18;;;;;;;;;34.75;28.25;;;;;;;;5049185;28;11585;-79
2023/11/28 07:00:45;;;;;;;;;32.00;28.00;;;;;;;;5048698;28;11518;-78
2023/11/28 07:03:13;;;;;;;;;20.50;20.50;;;;;;;;5048572;28;11568;-76
2023/11/28 07:05:41;;;;;;;;;28.50;27.00;;;;;;;;5049045;28;11594;-78
2023/11/28 07:08:08;;;;;;;;;23.50;19.75;;;;;;;;5048620;28;12047;-79
2023/11/28 07:10:35;;;;;;;;;25.00;23.00;;;;;;;;5048886;28;11691;-79
2023/11/28 07:13:02;;;;;;;;;24.75;23.75;;;;;;;;5048203;28;11542;-79
2023/11/28 07:15:29;;;;;;;;;31.25;28.00;;;;;;;;5048587;28;11570;-79
2023/11/28 07:18:00;;;;;;;;;22.25;20.75;;;;;;;;5047887;28;11562;-80
2023/11/28 07:20:29;;;;;;;;;21.75;21.25;;;;;;;;5049091;28;11551;-79
2023/11/28 07:22:59;;;;;;;;;25.75;21.50;;;;;;;;5049399;28;11602;-78
2023/11/28 07:25:26;;;;;;;;;25.25;21.50;;;;;;;;5050929;28;11551;-74
2023/11/28 07:27:53;;;;;;;;;24.50;23.50;;;;;;;;5051098;28;11547;-79
2023/11/28 07:30:20;;;;;;;;;21.00;21.00;;;;;;;;5051229;28;11551;-78
2023/11/28 07:32:49;;;;;;;;;29.25;23.50;;;;;;;;5052469;28;11671;-78
2023/11/28 07:35:17;;;;;;;;;24.75;24.00;;;;;;;;5050393;28;11588;-80
2023/11/28 07:37:45;;;;;;;;;28.50;25.75;;;;;;;;5053228;28;11690;-79
2023/11/28 07:40:13;;;;;;;;;23.25;21.75;;;;;;;;5051158;28;11663;-75
2023/11/28 07:42:40;;;;;;;;;21.25;21.25;;;;;;;;5052069;28;11575;-76
2023/11/28 07:45:08;;;;;;;;;21.00;17.50;;;;;;;;5048844;28;11550;-78
2023/11/28 07:47:35;;;;;;;;;14.75;13.50;;;;;;;;5049081;28;11591;-79
2023/11/28 07:50:03;;;;;;;;;22.50;19.75;;;;;;;;5049647;28;11642;-75
2023/11/28 07:52:30;;;;;;;;;24.00;21.50;;;;;;;;5051393;28;11552;-78
2023/11/28 07:54:58;;;;;;;;;37.00;34.50;;;;;;;;5049239;28;11667;-76
2023/11/28 07:57:26;;;;;;;;;56.50;44.00;;;;;;;;5048495;28;11602;-79
2023/11/28 07:59:53;;;;;;;;;43.00;36.75;;;;;;;;5047233;28;12372;-78
2023/11/28 08:02:20;;;;;;;;;23.00;23.00;;;;;;;;5046839;28;11654;-77
2023/11/28 08:04:47;;;;;;;;;30.00;30.00;;;;;;;;5047645;28;11640;-79
2023/11/28 08:07:15;;;;;;;;;29.75;26.25;;;;;;;;5047846;28;11566;-75
2023/11/28 08:09:42;;;;;;;;;20.25;20.25;;;;;;;;5047568;28;11671;-78
2023/11/28 08:12:11;;;;;;;;;28.50;26.75;;;;;;;;5047417;28;11728;-79
2023/11/28 08:14:38;;;;;;;;;26.75;26.75;;;;;;;;5047775;28;11528;-78
2023/11/28 08:17:06;;;;;;;;;28.00;25.00;;;;;;;;5047545;28;11680;-79
2023/11/28 08:19:33;;;;;;;;;21.00;21.00;;;;;;;;5047534;28;11596;-77
2023/11/28 08:22:00;;;;;;;;;26.25;24.75;;;;;;;;5047145;28;11570;-79
2023/11/28 08:24:27;;;;;;;;;38.50;28.75;;;;;;;;5047333;28;11572;-79
2023/11/28 08:26:55;;;;;;;;;22.00;18.00;;;;;;;;5047618;28;11601;-74
2023/11/28 08:29:23;;;;;;;;;27.50;25.00;;;;;;;;5046491;28;11671;-79
2023/11/28 08:31:51;;;;;;;;;35.25;30.75;;;;;;;;5047184;28;11544;-79
2023/11/28 08:34:19;;;;;;;;;29.50;29.50;;;;;;;;5047877;28;11577;-79
2023/11/28 08:36:46;;;;;;;;;23.25;23.25;;;;;;;;5047502;28;11574;-79
2023/11/28 08:39:15;;;;;;;;;16.75;16.75;;;;;;;;5049400;28;11686;-79
2023/11/28 08:41:42;;;;;;;;;22.00;21.00;;;;;;;;5049686;28;11551;-78
2023/11/28 08:44:09;;;;;;;;;26.50;24.00;;;;;;;;5047851;28;11557;-79
2023/11/28 08:46:38;;;;;;;;;17.75;17.75;;;;;;;;5047452;28;11585;-79
2023/11/28 08:49:07;;;;;;;;;15.00;15.00;;;;;;;;5047372;28;12382;-78
2023/11/28 08:51:35;;;;;;;;;20.00;20.00;;;;;;;;5047244;28;11565;-79
2023/11/28 08:54:02;;;;;;;;;20.00;17.50;;;;;;;;5046867;28;12394;-79
2023/11/28 08:56:29;;;;;;;;;26.00;22.00;;;;;;;;5050027;28;11569;-76
2023/11/28 08:58:56;;;;;;;;;28.25;28.25;;;;;;;;5037022;28;12443;-75
2023/11/28 09:01:24;;;;;;;;;32.00;27.25;;;;;;;;5047262;28;11534;-75
2023/11/28 09:03:52;;;;;;;;;30.75;28.50;;;;;;;;5047465;28;11591;-76
2023/11/28 09:06:20;;;;;;;;;22.25;19.75;;;;;;;;5045850;28;11581;-80
2023/11/28 09:08:49;;;;;;;;;30.50;29.00;;;;;;;;5047883;28;11574;-78
2023/11/28 09:11:16;;;;;;;;;31.25;28.75;;;;;;;;5047055;28;11596;-77
2023/11/28 09:13:43;;;;;;;;;36.50;34.50;;;;;;;;5048360;28;12274;-79
2023/11/28 09:16:12;;;;;;;;;26.75;23.75;;;;;;;;5045865;28;11577;-79
2023/11/28 09:18:40;;;;;;;;;22.00;16.75;;;;;;;;5049808;28;11568;-78
2023/11/28 09:21:09;;;;;;;;;27.50;25.50;;;;;;;;5042394;28;11598;-78
2023/11/28 09:23:36;;;;;;;;;22.25;18.75;;;;;;;;5038380;28;11601;-79
2023/11/28 09:26:04;;;;;;;;;29.50;24.00;;;;;;;;5045858;28;11578;-79
2023/11/28 09:28:34;;;;;;;;;20.75;18.75;;;;;;;;5040244;28;11646;-80
2023/11/28 09:31:01;;;;;;;;;16.50;16.50;;;;;;;;5038964;28;11432;-81
2023/11/28 09:33:28;;;;;;;;;16.75;16.50;;;;;;;;5050795;28;11501;-81
2023/11/28 09:35:55;;;;;;;;;29.50;24.25;;;;;;;;5047796;28;11621;-79
2023/11/28 09:38:24;;;;;;;;;22.75;22.00;;;;;;;;5049301;28;11554;-79
2023/11/28 09:40:51;;;;;;;;;27.75;26.25;;;;;;;;5048770;28;11575;-76
2023/11/28 09:43:22;;;;;;;;;24.50;24.50;;;;;;;;5049971;28;11581;-76
2023/11/28 09:45:49;;;;;;;;;18.75;18.75;;;;;;;;5047794;28;11495;-79
2023/11/28 09:48:17;;;;;;;;;18.75;18.75;;;;;;;;5047179;28;11538;-79
2023/11/28 09:50:46;;;;;;;;;19.50;18.25;;;;;;;;5043853;28;12262;-77
2023/11/28 09:53:14;;;;;;;;;17.75;17.75;;;;;;;;5046993;28;11481;-79
2023/11/28 09:55:44;;;;;;;;;41.50;31.50;;;;;;;;5047628;28;11512;-79
2023/11/28 09:58:13;;;;;;;;;18.25;18.25;;;;;;;;5049528;28;11597;-80
2023/11/28 10:00:41;;;;;;;;;26.50;24.75;;;;;;;;5049930;28;11453;-79
2023/11/28 10:03:08;;;;;;;;;22.75;20.75;;;;;;;;5050055;28;11560;-78
2023/11/28 10:05:35;;;;;;;;;22.25;21.75;;;;;;;;5050193;28;11636;-79
2023/11/28 10:08:03;;;;;;;;;23.00;18.50;;;;;;;;5049826;28;11513;-78
2023/11/28 10:10:36;;;;;;;;;22.00;22.00;;;;;;;;5050232;28;11615;-79
2023/11/28 10:13:04;;;;;;;;;18.25;18.25;;;;;;;;5049801;28;11509;-80
2023/11/28 10:15:31;;;;;;;;;14.50;14.50;;;;;;;;5042144;28;11463;-80
2023/11/28 10:18:01;;;;;;;;;17.00;17.00;;;;;;;;5049700;28;11595;-78
2023/11/28 10:20:28;;;;;;;;;19.50;19.50;;;;;;;;5047536;28;11506;-80
2023/11/28 10:22:56;;;;;;;;;29.25;23.50;;;;;;;;5049330;28;11530;-79
2023/11/28 10:25:24;;;;;;;;;16.25;13.75;;;;;;;;5042252;28;11550;-82
2023/11/28 10:27:51;;;;;;;;;24.00;16.50;;;;;;;;5049264;28;11615;-80
2023/11/28 10:30:21;;;;;;;;;18.75;16.50;;;;;;;;5049898;28;11608;-79
2023/11/28 10:32:49;;;;;;;;;15.50;14.00;;;;;;;;5049705;28;12114;-76
2023/11/28 10:35:16;;;;;;;;;19.75;18.25;;;;;;;;5049679;28;11500;-77
2023/11/28 10:37:44;;;;;;;;;18.75;17.75;;;;;;;;5037620;28;11514;-80
2023/11/28 10:40:13;;;;;;;;;21.25;17.50;;;;;;;;5049217;28;11513;-77
2023/11/28 10:42:43;;;;;;;;;15.25;14.75;;;;;;;;5050090;28;11502;-75
2023/11/28 10:45:12;;;;;;;;;14.25;14.25;;;;;;;;5049435;28;11520;-77
2023/11/28 10:47:43;;;;;;;;;16.75;16.50;;;;;;;;5050098;28;11524;-79
2023/11/28 10:50:11;;;;;;;;;16.50;14.25;;;;;;;;5049624;28;11527;-80
2023/11/28 10:52:40;;;;;;;;;21.00;19.50;;;;;;;;5049766;28;11493;-80
2023/11/28 10:55:09;;;;;;;;;20.75;18.50;;;;;;;;5049672;28;11478;-79
2023/11/28 10:57:43;;;;;;;;;17.25;14.50;;;;;;;;5050332;28;11499;-78
2023/11/28 11:00:13;;;;;;;;;13.25;13.25;;;;;;;;5048733;28;11630;-77
2023/11/28 11:02:41;;;;;;;;;20.00;17.75;;;;;;;;5052442;28;11481;-79
2023/11/28 11:05:10;;;;;;;;;18.50;16.50;;;;;;;;5051620;28;11618;-79
2023/11/28 11:07:38;;;;;;;;;33.50;30.50;;;;;;;;5047131;28;11525;-77
2023/11/28 11:10:08;;;;;;;;;12.25;11.75;;;;;;;;5052909;28;11623;-80
2023/11/28 11:12:38;;;;;;;;;19.25;19.25;;;;;;;;5037904;28;11541;-78
2023/11/28 11:15:09;;;;;;;;;26.50;24.25;;;;;;;;5054108;28;11499;-79
2023/11/28 11:17:44;;;;;;;;;17.50;15.50;;;;;;;;5039099;28;11529;-78
2023/11/28 11:20:13;;;;;;;;;18.25;18.25;;;;;;;;5055027;28;11493;-77
2023/11/28 11:22:43;;;;;;;;;19.50;18.75;;;;;;;;5043248;28;11497;-77
2023/11/28 11:25:10;;;;;;;;;21.75;14.75;;;;;;;;5043949;28;11490;-79
2023/11/28 11:27:37;;;;;;;;;15.75;14.50;;;;;;;;5054330;28;11634;-77
2023/11/28 11:30:09;;;;;;;;;20.25;18.75;;;;;;;;5050119;28;11495;-77
2023/11/28 11:32:37;;;;;;;;;16.50;16.50;;;;;;;;5056354;28;11469;-80
2023/11/28 11:35:08;;;;;;;;;19.50;17.75;;;;;;;;5055069;28;11505;-79
2023/11/28 11:37:36;;;;;;;;;20.50;15.00;;;;;;;;5048252;28;11492;-79
2023/11/28 11:40:04;;;;;;;;;16.25;14.25;;;;;;;;5048230;28;11627;-77
2023/11/28 11:42:33;;;;;;;;;17.00;16.00;;;;;;;;5048538;28;12396;-78
2023/11/28 11:45:02;;;;;;;;;12.50;12.25;;;;;;;;5048506;28;11492;-76
2023/11/28 11:47:31;;;;;;;;;14.75;14.75;;;;;;;;5050256;28;11632;-81
2023/11/28 11:49:59;;;;;;;;;14.00;13.00;;;;;;;;5048246;28;11495;-80
2023/11/28 11:52:32;;;;;;;;;18.75;16.75;;;;;;;;5038189;28;11300;-80
2023/11/28 11:55:05;;;;;;;;;13.00;13.00;;;;;;;;5047638;28;11227;-79
2023/11/28 11:57:33;;;;;;;;;16.50;12.50;;;;;;;;5048828;28;11186;-81
2023/11/28 12:00:00;;;;;;;;;15.25;13.25;;;;;;;;5048154;28;11500;-83
2023/11/28 12:02:37;;;;;;;;;21.50;19.00;;;;;;;;5048035;28;11233;-80
2023/11/28 12:05:06;;;;;;;;;20.25;17.00;;;;;;;;5048069;28;11503;-78
2023/11/28 12:07:35;;;;;;;;;17.00;17.00;;;;;;;;5048242;28;11343;-77
2023/11/28 12:10:07;;;;;;;;;20.25;14.50;;;;;;;;5048020;28;11478;-77
2023/11/28 12:12:34;;;;;;;;;17.75;17.75;;;;;;;;5046896;28;11491;-80
2023/11/28 12:15:02;;;;;;;;;12.75;12.75;;;;;;;;5047494;28;11404;-78
2023/11/28 12:17:32;;;;;;;;;14.00;10.25;;;;;;;;5047120;28;11308;-77
2023/11/28 12:19:59;;;;;;;;;11.00;11.00;;;;;;;;5037312;28;11147;-79
2023/11/28 12:22:26;;;;;;;;;15.00;10.25;;;;;;;;5048043;28;10954;-77
2023/11/28 12:24:54;;;;;;;;;18.50;18.25;;;;;;;;5048326;28;10893;-81
2023/11/28 12:27:22;;;;;;;;;16.25;14.50;;;;;;;;5048089;28;11052;-82
2023/11/28 12:29:49;;;;;;;;;12.25;12.25;;;;;;;;5047000;28;11671;-79
2023/11/28 12:32:17;;;;;;;;;17.00;15.00;;;;;;;;5047021;28;10759;-80
2023/11/28 12:34:44;;;;;;;;;13.50;10.75;;;;;;;;5047851;28;10971;-79
2023/11/28 12:37:11;;;;;;;;;12.75;12.75;;;;;;;;5047233;28;10704;-80
2023/11/28 12:39:40;;;;;;;;;13.25;13.25;;;;;;;;5048511;28;10916;-80
2023/11/28 12:42:09;;;;;;;;;16.75;15.75;;;;;;;;5047431;28;10883;-79
2023/11/28 12:44:38;;;;;;;;;20.00;19.75;;;;;;;;5047966;28;11803;-82
2023/11/28 12:47:05;;;;;;;;;17.50;17.50;;;;;;;;5047180;28;11199;-82
2023/11/28 12:49:36;;;;;;;;;19.00;16.50;;;;;;;;5048349;28;11036;-81
2023/11/28 12:52:03;;;;;;;;;21.00;14.00;;;;;;;;5048485;28;11065;-80
2023/11/28 12:54:32;;;;;;;;;18.00;18.00;;;;;;;;5049503;28;11035;-78
2023/11/28 12:56:59;;;;;;;;;14.50;14.50;;;;;;;;5049361;28;11321;-80
2023/11/28 12:59:30;;;;;;;;;15.00;15.00;;;;;;;;5041626;28;10994;-81
2023/11/28 13:01:57;;;;;;;;;12.00;12.00;;;;;;;;5049808;28;10885;-82
2023/11/28 13:04:24;;;;;;;;;15.00;14.00;;;;;;;;5037242;28;10951;-81
2023/11/28 13:06:52;;;;;;;;;21.25;21.25;;;;;;;;5039764;28;11709;-81
2023/11/28 13:09:19;;;;;;;;;14.50;13.75;;;;;;;;5036719;28;11006;-81
2023/11/28 13:11:46;;;;;;;;;15.00;15.00;;;;;;;;5049894;28;10870;-79
2023/11/28 13:14:14;;;;;;;;;18.00;17.25;;;;;;;;5048004;28;10981;-80
2023/11/28 13:16:42;;;;;;;;;10.25;10.25;;;;;;;;5049405;28;10876;-81
2023/11/28 13:19:09;;;;;;;;;12.25;11.00;;;;;;;;5049272;28;10887;-82
2023/11/28 13:21:37;;;;;;;;;16.00;14.00;;;;;;;;5050408;28;10755;-79
2023/11/28 13:24:04;;;;;;;;;9.50;9.50;;;;;;;;5047590;28;11660;-77
2023/11/28 13:26:31;;;;;;;;;15.50;14.50;;;;;;;;5047562;28;10813;-78
2023/11/28 13:28:59;;;;;;;;;16.75;15.50;;;;;;;;5045986;28;10899;-80
2023/11/28 13:31:26;;;;;;;;;14.25;14.25;;;;;;;;5050877;28;10835;-76
2023/11/28 13:33:56;;;;;;;;;24.25;20.00;;;;;;;;5050441;28;11040;-80
2023/11/28 13:36:23;;;;;;;;;20.75;20.75;;;;;;;;5051216;28;11040;-78
2023/11/28 13:38:51;;;;;;;;;14.25;14.25;;;;;;;;5050153;28;11343;-77
2023/11/28 13:41:18;;;;;;;;;11.25;9.75;;;;;;;;5051088;28;11127;-78
2023/11/28 13:43:45;;;;;;;;;17.50;15.75;;;;;;;;5050642;28;11556;-78
2023/11/28 13:46:12;;;;;;;;;18.25;16.50;;;;;;;;5051235;28;11375;-81
2023/11/28 13:48:40;;;;;;;;;17.50;15.50;;;;;;;;5051615;28;11089;-78
2023/11/28 13:51:09;;;;;;;;;15.25;15.25;;;;;;;;5051945;28;11037;-79
2023/11/28 13:53:37;;;;;;;;;19.75;17.25;;;;;;;;5050482;28;11048;-78
2023/11/28 13:56:05;;;;;;;;;26.50;22.75;;;;;;;;5049589;28;11511;-79
2023/11/28 13:58:32;;;;;;;;;15.25;14.50;;;;;;;;5050682;28;11504;-77
2023/11/28 14:00:59;;;;;;;;;16.75;15.25;;;;;;;;5050294;28;11506;-79
2023/11/28 14:03:28;;;;;;;;;18.25;15.50;;;;;;;;5049997;28;11303;-80
2023/11/28 14:05:55;;;;;;;;;14.00;14.00;;;;;;;;5050525;28;11257;-80
2023/11/28 14:08:24;;;;;;;;;14.25;14.25;;;;;;;;5050047;28;11834;-80
2023/11/28 14:10:51;;;;;;;;;10.75;10.75;;;;;;;;5050191;28;11142;-78
2023/11/28 14:13:19;;;;;;;;;11.00;11.00;;;;;;;;5050280;28;10881;-81
2023/11/28 14:15:46;;;;;;;;;13.75;10.75;;;;;;;;5050865;28;10856;-80
2023/11/28 14:18:14;;;;;;;;;10.50;10.50;;;;;;;;5050615;28;10891;-79
2023/11/28 14:20:41;;;;;;;;;15.25;13.00;;;;;;;;5051336;28;11004;-79
2023/11/28 14:23:09;;;;;;;;;11.25;11.25;;;;;;;;5040701;28;10849;-79
2023/11/28 14:25:38;;;;;;;;;11.75;11.75;;;;;;;;5054093;28;10735;-81
2023/11/28 14:28:04;;;;;;;;;17.75;14.25;;;;;;;;5050885;28;10791;-81